Time;durP1;ratioP1;P1;durP2;ratioP2;P2;SDS_P1;SDS_P2;PMS_P1;PMS_P2;Temp;Humidity;BMP_temperature;BMP_pressure;BME280_temperature;BME280_humidity;BME280_pressure;Samples;Min_cycle;Max_cycle;Signal;HPM_P1;HPM_P2
2022/03/24 00:00:32;;;;;;;12.20;6.32;;;7.70;57.20;;;;;;5054840;28;20029;-80
2022/03/24 00:02:58;;;;;;;8.93;5.88;;;7.70;57.30;;;;;;5057005;28;20025;-81
2022/03/24 00:05:24;;;;;;;8.73;5.65;;;7.60;57.40;;;;;;5056425;28;20108;-80
2022/03/24 00:07:49;;;;;;;10.13;6.68;;;7.60;57.60;;;;;;5054793;28;20477;-79
2022/03/24 00:10:16;;;;;;;10.02;6.45;;;7.50;57.60;;;;;;5057294;28;20027;-80
2022/03/24 00:12:42;;;;;;;9.75;5.93;;;7.50;57.90;;;;;;5058864;28;20028;-80
2022/03/24 00:15:10;;;;;;;9.40;6.30;;;7.50;58.20;;;;;;5054999;28;20021;-79
2022/03/24 00:17:36;;;;;;;9.98;6.43;;;7.50;58.40;;;;;;5053580;28;20567;-80
2022/03/24 00:20:03;;;;;;;11.18;6.15;;;7.40;58.40;;;;;;5056184;28;20196;-78
2022/03/24 00:22:29;;;;;;;11.63;5.68;;;7.40;58.70;;;;;;5058397;28;20087;-79
2022/03/24 00:24:55;;;;;;;9.00;5.95;;;7.40;58.80;;;;;;5056902;28;20021;-77
2022/03/24 00:27:21;;;;;;;11.13;6.60;;;7.40;59.00;;;;;;5059443;28;20040;-78
2022/03/24 00:29:47;;;;;;;9.45;6.25;;;7.30;59.00;;;;;;5058399;28;20476;-78
2022/03/24 00:32:13;;;;;;;9.73;6.10;;;7.30;59.20;;;;;;5059451;28;20056;-79
2022/03/24 00:34:39;;;;;;;9.98;5.80;;;7.30;59.20;;;;;;5058459;28;20033;-80
2022/03/24 00:37:05;;;;;;;8.52;5.60;;;7.30;59.30;;;;;;5057775;28;20064;-78
2022/03/24 00:39:33;;;;;;;9.30;5.80;;;7.30;59.30;;;;;;5060853;28;20267;-80
2022/03/24 00:42:01;;;;;;;10.13;6.28;;;7.30;59.50;;;;;;5059699;28;20343;-80
2022/03/24 00:44:28;;;;;;;8.80;5.57;;;7.30;59.70;;;;;;5058214;28;20033;-80
2022/03/24 00:46:55;;;;;;;8.50;5.40;;;7.20;59.80;;;;;;5060870;28;20017;-79
2022/03/24 00:49:21;;;;;;;8.30;5.53;;;7.20;60.10;;;;;;5062990;28;20042;-78
2022/03/24 00:51:48;;;;;;;7.82;5.15;;;7.20;60.20;;;;;;5064563;28;20104;-80
2022/03/24 00:54:18;;;;;;;10.77;5.95;;;7.10;60.30;;;;;;5065793;28;20044;-78
2022/03/24 00:56:45;;;;;;;9.55;6.18;;;7.10;60.40;;;;;;5063680;28;20028;-79
2022/03/24 00:59:11;;;;;;;9.90;6.47;;;7.10;60.60;;;;;;5064940;28;20025;-79
2022/03/24 01:01:39;;;;;;;10.50;6.70;;;7.00;60.70;;;;;;5065992;28;20025;-79
2022/03/24 01:04:08;;;;;;;9.25;5.82;;;7.00;60.90;;;;;;5063650;28;20537;-79
2022/03/24 01:06:34;;;;;;;7.38;4.95;;;6.90;61.20;;;;;;5063348;28;20047;-79
2022/03/24 01:09:01;;;;;;;8.13;5.72;;;6.90;61.60;;;;;;5070895;28;20151;-79
2022/03/24 01:11:27;;;;;;;8.65;5.88;;;6.90;61.90;;;;;;5078307;28;20017;-78
2022/03/24 01:13:53;;;;;;;10.32;5.97;;;6.90;62.10;;;;;;5073736;28;20043;-79
2022/03/24 01:16:19;;;;;;;9.48;6.35;;;6.80;62.10;;;;;;5075198;28;20016;-79
2022/03/24 01:18:45;;;;;;;9.18;5.85;;;6.80;62.40;;;;;;5073333;28;20051;-79
2022/03/24 01:21:16;;;;;;;10.25;6.20;;;6.80;62.60;;;;;;5075336;28;20029;-79
2022/03/24 01:23:44;;;;;;;8.75;5.30;;;6.70;62.80;;;;;;5071609;28;20021;-79
2022/03/24 01:26:11;;;;;;;7.07;4.82;;;6.70;63.10;;;;;;5062477;28;20440;-78
2022/03/24 01:28:39;;;;;;;9.27;5.70;;;6.60;63.20;;;;;;5063710;28;20033;-78
2022/03/24 01:31:08;;;;;;;10.32;6.72;;;6.60;63.30;;;;;;5073785;28;20048;-78
2022/03/24 01:33:37;;;;;;;13.05;6.60;;;6.60;63.50;;;;;;5075188;28;20033;-80
2022/03/24 01:36:05;;;;;;;11.10;6.63;;;6.60;64.30;;;;;;5080626;28;20016;-77
2022/03/24 01:38:32;;;;;;;9.82;6.32;;;6.50;63.90;;;;;;5077491;28;20017;-77
2022/03/24 01:40:58;;;;;;;12.05;6.40;;;6.50;64.10;;;;;;5073944;28;20029;-78
2022/03/24 01:43:24;;;;;;;10.70;6.75;;;6.40;64.20;;;;;;5075274;28;20027;-77
2022/03/24 01:45:50;;;;;;;11.40;7.10;;;6.40;64.40;;;;;;5076811;28;20013;-78
2022/03/24 01:48:16;;;;;;;12.50;6.90;;;6.40;65.40;;;;;;5076471;28;20213;-77
2022/03/24 01:50:43;;;;;;;10.35;6.22;;;6.40;65.00;;;;;;5077354;28;20021;-78
2022/03/24 01:53:10;;;;;;;9.25;6.20;;;6.40;65.00;;;;;;5073993;28;20295;-78
2022/03/24 01:55:39;;;;;;;10.70;5.95;;;6.40;65.20;;;;;;5061131;28;20039;-79
2022/03/24 01:58:05;;;;;;;10.93;5.90;;;6.40;65.30;;;;;;5059632;28;20108;-78
2022/03/24 02:00:31;;;;;;;10.27;5.93;;;6.40;65.40;;;;;;5060990;28;20497;-78
2022/03/24 02:03:02;;;;;;;7.75;5.63;;;6.30;65.40;;;;;;5060102;28;20048;-78
2022/03/24 02:05:32;;;;;;;12.52;5.25;;;6.30;65.70;;;;;;5060454;28;20017;-79
2022/03/24 02:08:03;;;;;;;10.20;5.38;;;6.30;66.10;;;;;;5063254;28;20028;-79
2022/03/24 02:10:34;;;;;;;9.07;5.43;;;6.20;66.30;;;;;;5063432;28;20021;-79
2022/03/24 02:13:01;;;;;;;9.40;5.45;;;6.20;66.60;;;;;;5062608;28;20047;-79
2022/03/24 02:15:28;;;;;;;7.53;4.70;;;6.10;66.80;;;;;;5064109;28;20340;-79
2022/03/24 02:17:54;;;;;;;8.57;5.55;;;6.20;67.10;;;;;;5062193;28;20134;-79
2022/03/24 02:20:21;;;;;;;7.90;5.30;;;6.10;67.20;;;;;;5061055;28;20053;-79
2022/03/24 02:22:48;;;;;;;8.50;4.88;;;6.10;67.40;;;;;;5066625;28;20037;-79
2022/03/24 02:25:14;;;;;;;7.85;4.97;;;6.10;67.70;;;;;;5064338;28;20024;-79
2022/03/24 02:27:40;;;;;;;7.43;4.93;;;6.10;67.90;;;;;;5062382;28;20016;-79
2022/03/24 02:30:07;;;;;;;6.95;4.65;;;6.10;68.00;;;;;;5062433;28;20067;-79
2022/03/24 02:32:33;;;;;;;7.82;4.70;;;6.10;68.00;;;;;;5063771;28;20092;-80
2022/03/24 02:34:59;;;;;;;7.90;4.45;;;6.10;68.10;;;;;;5061752;28;20453;-79
2022/03/24 02:37:28;;;;;;;7.47;4.60;;;6.10;68.00;;;;;;5062589;28;20035;-80
2022/03/24 02:39:55;;;;;;;5.65;4.28;;;6.10;67.90;;;;;;5063059;28;20029;-79
2022/03/24 02:42:29;;;;;;;7.55;4.82;;;6.10;67.80;;;;;;5062218;28;20075;-79
2022/03/24 02:45:02;;;;;;;7.32;3.75;;;6.10;67.50;;;;;;5062209;28;20024;-79
2022/03/24 02:47:29;;;;;;;6.35;4.45;;;6.10;67.50;;;;;;5060839;28;20021;-79
2022/03/24 02:49:56;;;;;;;4.95;3.60;;;6.00;67.50;;;;;;5061987;28;20029;-79
2022/03/24 02:52:22;;;;;;;6.80;4.57;;;6.00;67.60;;;;;;5061311;28;20029;-79
2022/03/24 02:54:48;;;;;;;9.65;4.82;;;5.90;67.70;;;;;;5061448;28;20029;-79
2022/03/24 02:57:14;;;;;;;7.38;4.88;;;5.90;67.80;;;;;;5061084;28;20092;-79
2022/03/24 02:59:40;;;;;;;6.75;4.50;;;5.90;68.20;;;;;;5061842;28;20029;-79
2022/03/24 03:02:08;;;;;;;6.13;4.22;;;5.90;68.50;;;;;;5061856;28;20025;-79
2022/03/24 03:04:34;;;;;;;5.93;3.83;;;5.90;68.40;;;;;;5061047;28;20032;-79
2022/03/24 03:07:02;;;;;;;8.30;4.90;;;5.90;68.40;;;;;;5060559;28;20025;-79
2022/03/24 03:09:30;;;;;;;5.28;3.50;;;5.90;68.90;;;;;;5060980;28;20474;-79
2022/03/24 03:11:57;;;;;;;4.47;3.28;;;5.90;68.10;;;;;;5061348;28;20025;-79
2022/03/24 03:14:23;;;;;;;6.82;4.38;;;5.90;67.90;;;;;;5061503;28;20025;-79
2022/03/24 03:16:49;;;;;;;7.03;3.83;;;5.90;67.80;;;;;;5061775;28;20508;-79
2022/03/24 03:19:19;;;;;;;5.80;3.47;;;5.90;67.70;;;;;;5059614;28;20549;-79
2022/03/24 03:21:47;;;;;;;4.97;3.53;;;5.90;67.60;;;;;;5063027;28;20375;-79
2022/03/24 03:24:13;;;;;;;5.13;3.92;;;5.90;67.80;;;;;;5061251;28;20021;-79
2022/03/24 03:26:39;;;;;;;4.88;3.35;;;5.90;67.90;;;;;;5061707;28;20145;-79
2022/03/24 03:29:06;;;;;;;7.18;3.72;;;5.90;67.70;;;;;;5061615;28;20472;-78
2022/03/24 03:31:34;;;;;;;5.13;3.63;;;5.80;67.40;;;;;;5060295;28;20021;-79
2022/03/24 03:34:01;;;;;;;5.25;3.90;;;5.80;67.70;;;;;;5061763;28;20085;-79
2022/03/24 03:36:28;;;;;;;5.72;4.05;;;5.70;67.40;;;;;;5061825;28;20516;-79
2022/03/24 03:38:54;;;;;;;8.57;4.70;;;5.70;67.70;;;;;;5063708;28;20024;-80
2022/03/24 03:41:22;;;;;;;6.28;4.32;;;5.70;67.90;;;;;;5066034;28;20036;-78
2022/03/24 03:43:49;;;;;;;9.15;4.80;;;5.70;67.90;;;;;;5073990;28;20009;-78
2022/03/24 03:46:16;;;;;;;6.47;4.00;;;5.70;67.80;;;;;;5073401;28;20025;-78
2022/03/24 03:48:42;;;;;;;7.35;4.80;;;5.70;67.50;;;;;;5072170;28;20047;-79
2022/03/24 03:51:08;;;;;;;8.90;5.10;;;5.70;67.50;;;;;;5063748;28;20021;-79
2022/03/24 03:53:37;;;;;;;10.40;5.13;;;5.70;67.50;;;;;;5061550;28;20503;-80
2022/03/24 03:56:05;;;;;;;6.28;4.43;;;5.70;67.50;;;;;;5061032;28;20025;-80
2022/03/24 03:58:31;;;;;;;9.23;4.95;;;5.60;67.60;;;;;;5060634;28;20539;-80
2022/03/24 04:00:57;;;;;;;7.60;5.40;;;5.60;67.60;;;;;;5060480;28;20056;-79
2022/03/24 04:03:27;;;;;;;7.72;5.00;;;5.60;67.70;;;;;;5061618;28;20028;-79
2022/03/24 04:06:01;;;;;;;7.07;4.28;;;5.60;67.80;;;;;;5063300;28;20025;-79
2022/03/24 04:08:30;;;;;;;6.28;5.13;;;5.50;67.80;;;;;;5060536;28;20103;-79
2022/03/24 04:10:56;;;;;;;6.82;4.50;;;5.50;67.90;;;;;;5059545;28;20032;-79
2022/03/24 04:13:22;;;;;;;7.88;5.00;;;5.50;68.00;;;;;;5059467;28;20071;-80
2022/03/24 04:15:49;;;;;;;8.85;5.13;;;5.50;68.20;;;;;;5061046;28;20025;-80
2022/03/24 04:18:16;;;;;;;10.48;5.13;;;5.50;68.30;;;;;;5059951;28;20029;-80
2022/03/24 04:20:42;;;;;;;8.70;4.90;;;5.50;68.60;;;;;;5066736;28;20020;-82
2022/03/24 04:23:08;;;;;;;13.18;5.55;;;5.40;68.90;;;;;;5071974;28;20025;-82
2022/03/24 04:25:35;;;;;;;8.20;5.68;;;5.40;69.30;;;;;;5072805;28;20361;-80
2022/03/24 04:28:01;;;;;;;8.82;5.35;;;5.40;69.60;;;;;;5070740;28;20025;-80
2022/03/24 04:30:27;;;;;;;10.43;5.20;;;5.30;69.70;;;;;;5072736;28;20024;-83
2022/03/24 04:32:54;;;;;;;8.75;5.40;;;5.30;69.80;;;;;;5072934;28;20458;-81
2022/03/24 04:35:21;;;;;;;10.80;5.13;;;5.30;70.00;;;;;;5073214;28;20029;-81
2022/03/24 04:37:48;;;;;;;8.88;5.68;;;5.20;70.20;;;;;;5076945;28;20028;-80
2022/03/24 04:40:17;;;;;;;12.07;5.65;;;5.20;70.30;;;;;;5067497;28;20029;-83
2022/03/24 04:42:49;;;;;;;8.00;5.05;;;5.20;70.50;;;;;;5070589;28;20128;-81
2022/03/24 04:45:17;;;;;;;8.63;4.70;;;5.20;70.50;;;;;;5071850;28;20021;-80
2022/03/24 04:47:43;;;;;;;7.65;4.50;;;5.10;70.50;;;;;;5077522;28;20037;-80
2022/03/24 04:50:10;;;;;;;7.30;4.25;;;5.10;70.50;;;;;;5075380;28;20040;-81
2022/03/24 04:52:36;;;;;;;6.47;4.38;;;5.10;70.40;;;;;;5073113;28;20066;-82
2022/03/24 04:55:03;;;;;;;8.25;4.38;;;5.00;70.40;;;;;;5065429;28;20028;-82
2022/03/24 04:57:29;;;;;;;6.32;3.92;;;5.00;70.40;;;;;;5066191;28;20036;-83
2022/03/24 04:59:56;;;;;;;6.78;4.10;;;5.00;70.40;;;;;;5063610;28;20037;-83
2022/03/24 05:02:25;;;;;;;6.45;4.28;;;5.00;70.40;;;;;;5065155;28;20032;-83
2022/03/24 05:04:52;;;;;;;5.53;3.80;;;4.90;70.60;;;;;;5069030;28;20334;-83
2022/03/24 05:07:18;;;;;;;7.20;4.18;;;4.90;70.70;;;;;;5062814;28;20385;-83
2022/03/24 05:09:50;;;;;;;5.35;3.90;;;4.90;71.00;;;;;;5063314;28;20029;-82
2022/03/24 05:12:16;;;;;;;5.70;4.23;;;4.90;71.00;;;;;;5066251;28;20029;-83
2022/03/24 05:14:42;;;;;;;7.63;4.40;;;4.90;71.10;;;;;;5063795;28;20284;-82
2022/03/24 05:17:08;;;;;;;5.55;3.88;;;4.90;71.30;;;;;;5063632;28;20036;-82
2022/03/24 05:19:34;;;;;;;7.32;4.43;;;4.90;71.40;;;;;;5063286;28;20397;-82
2022/03/24 05:22:01;;;;;;;6.85;4.05;;;4.90;71.50;;;;;;5098172;22;20049;-82
2022/03/24 05:24:27;;;;;;;6.82;3.75;;;5.00;71.40;;;;;;5045156;28;20018;-83
2022/03/24 05:26:53;;;;;;;5.07;3.75;;;5.00;71.00;;;;;;5033245;28;20052;-83
2022/03/24 05:29:19;;;;;;;6.65;3.42;;;5.00;70.80;;;;;;5009706;28;20075;-83
2022/03/24 05:31:45;;;;;;;4.13;3.40;;;5.10;70.70;;;;;;5014758;28;20045;-83
2022/03/24 05:34:11;;;;;;;8.48;3.95;;;5.10;70.50;;;;;;5024540;28;20143;-81
2022/03/24 05:36:37;;;;;;;4.65;3.25;;;5.10;70.50;;;;;;5016595;28;20098;-80
2022/03/24 05:39:04;;;;;;;6.78;4.57;;;5.10;70.50;;;;;;5020661;28;20030;-79
2022/03/24 05:41:30;;;;;;;6.43;4.35;;;5.20;70.40;;;;;;5030294;28;20037;-79
2022/03/24 05:44:06;;;;;;;6.05;3.83;;;5.20;70.20;;;;;;5033946;28;20128;-80
2022/03/24 05:46:33;;;;;;;6.82;3.92;;;5.20;70.20;;;;;;5024028;28;20057;-80
2022/03/24 05:48:58;;;;;;;4.93;3.53;;;5.20;70.10;;;;;;5027427;28;20112;-82
2022/03/24 05:51:25;;;;;;;7.90;4.38;;;5.20;70.00;;;;;;5037273;28;20045;-81
2022/03/24 05:53:51;;;;;;;6.78;4.72;;;5.30;70.00;;;;;;5036612;28;20021;-82
2022/03/24 05:56:17;;;;;;;7.47;4.13;;;5.30;69.90;;;;;;5038585;28;20075;-81
2022/03/24 05:58:43;;;;;;;6.85;4.18;;;5.30;69.70;;;;;;5023533;28;20029;-81
2022/03/24 06:01:11;;;;;;;7.63;4.25;;;5.30;69.70;;;;;;5024736;28;20065;-81
2022/03/24 06:03:37;;;;;;;8.57;4.32;;;5.40;69.50;;;;;;5017287;28;20034;-80
2022/03/24 06:06:08;;;;;;;5.72;4.00;;;5.40;69.40;;;;;;5034529;28;20052;-81
2022/03/24 06:08:35;;;;;;;6.47;3.97;;;5.40;69.30;;;;;;5036305;28;20077;-80
2022/03/24 06:11:01;;;;;;;5.43;4.15;;;5.50;69.30;;;;;;5041805;28;20087;-79
2022/03/24 06:13:27;;;;;;;5.03;3.50;;;5.60;69.10;;;;;;5042545;28;20025;-79
2022/03/24 06:15:53;;;;;;;7.03;3.28;;;5.70;69.10;;;;;;5031867;28;20026;-80
2022/03/24 06:18:20;;;;;;;5.88;3.42;;;5.70;68.80;;;;;;5040311;28;20458;-80
2022/03/24 06:20:46;;;;;;;7.65;4.15;;;5.80;68.70;;;;;;5043037;28;20054;-81
2022/03/24 06:23:13;;;;;;;6.45;4.38;;;5.80;68.50;;;;;;5042107;28;20087;-79
2022/03/24 06:25:42;;;;;;;7.00;4.05;;;5.90;68.40;;;;;;5041028;28;20022;-79
2022/03/24 06:28:08;;;;;;;8.10;4.90;;;5.90;68.10;;;;;;5024302;28;20053;-80
2022/03/24 06:30:34;;;;;;;7.53;4.97;;;6.00;68.00;;;;;;5025690;28;20014;-79
2022/03/24 06:33:00;;;;;;;7.18;4.72;;;6.10;67.70;;;;;;5026610;28;20036;-81
2022/03/24 06:35:26;;;;;;;7.18;4.70;;;6.20;67.50;;;;;;5025212;28;20175;-82
2022/03/24 06:37:53;;;;;;;6.97;4.53;;;6.30;67.20;;;;;;5024702;28;20013;-80
2022/03/24 06:40:19;;;;;;;8.32;4.97;;;6.30;67.00;;;;;;5041271;28;20048;-80
2022/03/24 06:42:46;;;;;;;5.65;4.53;;;6.40;66.70;;;;;;5041501;28;20030;-81
2022/03/24 06:45:13;;;;;;;10.05;5.20;;;6.50;66.40;;;;;;5039251;28;20033;-80
2022/03/24 06:47:40;;;;;;;9.68;4.85;;;6.50;66.10;;;;;;5038709;28;20021;-80
2022/03/24 06:50:12;;;;;;;8.85;4.85;;;6.60;65.80;;;;;;5027198;28;20014;-80
2022/03/24 06:52:38;;;;;;;6.22;4.38;;;6.70;65.70;;;;;;5038684;28;20052;-80
2022/03/24 06:55:05;;;;;;;6.82;4.82;;;6.80;65.40;;;;;;5033666;28;20501;-80
2022/03/24 06:57:31;;;;;;;15.63;5.28;;;7.00;65.00;;;;;;5029943;28;20052;-80
2022/03/24 06:59:57;;;;;;;9.02;4.72;;;7.10;64.60;;;;;;5038191;28;20025;-80
2022/03/24 07:02:23;;;;;;;7.20;4.55;;;7.20;64.30;;;;;;5036622;28;20111;-80
2022/03/24 07:04:49;;;;;;;10.57;4.75;;;7.30;64.00;;;;;;5037289;28;20147;-80
2022/03/24 07:07:15;;;;;;;6.93;4.53;;;7.40;63.50;;;;;;5038499;28;20045;-80
2022/03/24 07:09:42;;;;;;;7.90;4.80;;;7.60;63.20;;;;;;5035152;28;20033;-80
2022/03/24 07:12:09;;;;;;;8.00;4.70;;;7.60;62.60;;;;;;5038756;28;20060;-80
2022/03/24 07:14:35;;;;;;;6.25;4.18;;;7.80;62.40;;;;;;5036945;28;20097;-79
2022/03/24 07:17:00;;;;;;;6.95;4.32;;;7.90;61.90;;;;;;5035722;28;20025;-82
2022/03/24 07:19:26;;;;;;;4.85;3.60;;;8.10;61.60;;;;;;5035710;28;20047;-80
2022/03/24 07:21:52;;;;;;;10.50;5.28;;;8.20;61.20;;;;;;5036957;28;20076;-80
2022/03/24 07:24:19;;;;;;;10.13;4.53;;;8.40;60.70;;;;;;5024266;28;20029;-80
2022/03/24 07:26:44;;;;;;;12.70;4.90;;;8.50;60.20;;;;;;5033606;28;20513;-79
2022/03/24 07:29:10;;;;;;;7.10;5.25;;;8.80;59.70;;;;;;5017008;28;20245;-81
2022/03/24 07:31:37;;;;;;;9.20;5.28;;;9.00;59.20;;;;;;5014612;28;20541;-81
2022/03/24 07:34:04;;;;;;;7.70;4.50;;;9.20;58.80;;;;;;5017122;28;20029;-79
2022/03/24 07:36:30;;;;;;;15.75;5.60;;;9.30;58.30;;;;;;5016802;28;20111;-81
2022/03/24 07:38:58;;;;;;;10.02;5.70;;;9.50;57.60;;;;;;5015702;28;20030;-79
2022/03/24 07:41:24;;;;;;;11.13;6.38;;;9.70;57.10;;;;;;5018239;28;20049;-81
2022/03/24 07:43:50;;;;;;;9.30;5.43;;;9.90;56.60;;;;;;5021532;28;20017;-80
2022/03/24 07:46:19;;;;;;;9.43;5.57;;;10.10;56.20;;;;;;5049979;28;20064;-81
2022/03/24 07:48:47;;;;;;;9.13;5.63;;;10.30;55.70;;;;;;5053134;28;20044;-80
2022/03/24 07:51:13;;;;;;;7.65;4.30;;;10.50;55.30;;;;;;5051785;28;20426;-80
2022/03/24 07:53:53;;;;;;;7.30;4.22;;;10.70;54.90;;;;;;5038349;28;20028;-80
2022/03/24 07:56:24;;;;;;;4.95;3.92;;;11.00;54.40;;;;;;5034409;28;20017;-79
2022/03/24 07:58:50;;;;;;;9.73;5.43;;;11.20;53.80;;;;;;5048673;28;20026;-80
2022/03/24 08:01:25;;;;;;;9.40;5.15;;;11.40;53.20;;;;;;5043926;28;20045;-80
2022/03/24 08:03:52;;;;;;;7.85;5.13;;;11.70;52.50;;;;;;5018605;28;20018;-78
2022/03/24 08:06:18;;;;;;;8.95;5.70;;;11.80;51.90;;;;;;5018564;28;20025;-80
2022/03/24 08:08:43;;;;;;;8.63;4.78;;;12.00;51.50;;;;;;5016787;28;20435;-80
2022/03/24 08:11:09;;;;;;;7.13;5.20;;;12.30;51.10;;;;;;5017441;28;20144;-80
2022/03/24 08:13:35;;;;;;;7.75;5.38;;;12.50;50.60;;;;;;5020603;28;20447;-81
2022/03/24 08:16:01;;;;;;;6.05;4.45;;;12.80;50.10;;;;;;5031209;28;20357;-82
2022/03/24 08:18:27;;;;;;;6.57;4.45;;;13.00;49.50;;;;;;5025676;28;20036;-81
2022/03/24 08:20:52;;;;;;;8.45;4.75;;;13.20;48.80;;;;;;5021866;28;20498;-83
2022/03/24 08:23:18;;;;;;;6.85;4.30;;;13.50;48.40;;;;;;5032607;28;20050;-83
2022/03/24 08:25:44;;;;;;;7.65;5.10;;;13.80;47.90;;;;;;5043357;28;20025;-82
2022/03/24 08:28:20;;;;;;;8.05;4.63;;;13.90;47.30;;;;;;5039068;28;20025;-81
2022/03/24 08:30:57;;;;;;;7.43;4.30;;;14.20;46.80;;;;;;5041914;28;20029;-81
2022/03/24 08:33:23;;;;;;;7.43;4.30;;;14.40;46.30;;;;;;5041022;28;20033;-81
2022/03/24 08:35:50;;;;;;;5.55;4.43;;;14.60;45.80;;;;;;5045229;28;20025;-81
2022/03/24 08:38:18;;;;;;;3.95;3.33;;;15.00;45.40;;;;;;5050933;28;20009;-80
2022/03/24 08:40:44;;;;;;;3.80;3.33;;;15.30;44.80;;;;;;5051423;28;20073;-81
2022/03/24 08:43:10;;;;;;;6.45;4.00;;;15.50;44.10;;;;;;5041483;28;20021;-81
2022/03/24 08:46:12;;;;;;;5.45;4.38;;;15.70;43.30;;;;;;5043450;28;20036;-81
2022/03/24 08:48:39;;;;;;;8.55;4.78;;;16.00;42.80;;;;;;5036436;28;20033;-80
2022/03/24 08:51:06;;;;;;;5.70;4.35;;;16.10;42.10;;;;;;5038691;28;20435;-81
2022/03/24 08:53:37;;;;;;;6.15;4.80;;;16.20;41.60;;;;;;5041778;28;20037;-82
2022/03/24 08:56:03;;;;;;;7.05;4.63;;;16.40;41.20;;;;;;5035149;28;20030;-82
2022/03/24 08:58:29;;;;;;;4.93;4.43;;;16.70;40.80;;;;;;5039662;28;20095;-82
2022/03/24 09:00:57;;;;;;;6.55;5.70;;;16.90;40.30;;;;;;5038448;28;20032;-80
2022/03/24 09:03:37;;;;;;;10.27;6.55;;;17.10;39.70;;;;;;5038454;28;20117;-80
2022/03/24 09:06:03;;;;;;;8.20;6.65;;;17.10;39.10;;;;;;5039751;28;20029;-79
2022/03/24 09:08:29;;;;;;;13.32;7.60;;;17.20;38.90;;;;;;5039210;28;20026;-80
2022/03/24 09:10:55;;;;;;;10.10;6.72;;;17.40;38.10;;;;;;5038773;28;20029;-80
2022/03/24 09:13:20;;;;;;;9.98;7.68;;;17.50;38.00;;;;;;5038679;28;20450;-79
2022/03/24 09:15:46;;;;;;;12.65;7.78;;;17.40;37.50;;;;;;5037516;28;20450;-81
2022/03/24 09:18:13;;;;;;;9.98;6.57;;;17.30;37.50;;;;;;5036258;28;20116;-81
2022/03/24 09:20:43;;;;;;;10.65;6.53;;;17.30;37.50;;;;;;5036772;28;20018;-81
2022/03/24 09:23:09;;;;;;;10.48;7.80;;;17.40;36.90;;;;;;5038116;28;20029;-80
2022/03/24 09:25:35;;;;;;;8.43;7.13;;;17.60;35.90;;;;;;5021792;28;20073;-79
2022/03/24 09:28:01;;;;;;;9.77;7.38;;;17.80;34.60;;;;;;5033631;28;20036;-81
2022/03/24 09:30:27;;;;;;;8.27;6.78;;;18.00;34.40;;;;;;5027508;28;20022;-82
2022/03/24 09:32:53;;;;;;;11.88;7.53;;;18.20;34.50;;;;;;5016782;28;20417;-81
2022/03/24 09:35:33;;;;;;;8.02;6.63;;;18.50;34.30;;;;;;5017473;28;20026;-82
2022/03/24 09:38:00;;;;;;;12.97;7.47;;;18.90;34.00;;;;;;5019012;28;20022;-83
2022/03/24 09:40:26;;;;;;;14.05;8.50;;;18.90;33.80;;;;;;5019281;28;20075;-81
2022/03/24 09:42:52;;;;;;;11.02;7.85;;;18.80;34.00;;;;;;5017135;28;20092;-81
2022/03/24 09:45:19;;;;;;;8.55;7.65;;;18.70;33.60;;;;;;5021412;28;20030;-80
2022/03/24 09:47:45;;;;;;;8.73;7.50;;;18.70;33.50;;;;;;5032403;28;20029;-80
2022/03/24 09:50:14;;;;;;;8.80;6.55;;;18.70;33.80;;;;;;5043049;28;20560;-80
2022/03/24 09:52:40;;;;;;;10.27;8.38;;;19.00;33.80;;;;;;5040891;28;20040;-80
2022/03/24 09:55:08;;;;;;;11.80;8.60;;;19.10;33.30;;;;;;5027170;28;20089;-80
2022/03/24 09:57:34;;;;;;;12.10;7.93;;;19.10;33.20;;;;;;5030629;28;20026;-79
2022/03/24 10:00:02;;;;;;;13.48;9.23;;;19.20;33.30;;;;;;5024482;28;20064;-81
2022/03/24 10:02:29;;;;;;;11.45;9.18;;;19.10;33.30;;;;;;5022801;28;20122;-81
2022/03/24 10:05:00;;;;;;;14.23;9.60;;;18.80;33.40;;;;;;5022577;28;20014;-84
2022/03/24 10:07:35;;;;;;;11.80;8.70;;;18.60;33.80;;;;;;5037268;28;20236;-79
2022/03/24 10:10:06;;;;;;;11.30;9.05;;;18.50;34.10;;;;;;5040572;28;20029;-81
2022/03/24 10:12:37;;;;;;;11.52;8.45;;;18.70;33.80;;;;;;5048341;28;20028;-81
2022/03/24 10:15:12;;;;;;;10.53;7.43;;;19.10;33.80;;;;;;5040232;28;20043;-83
2022/03/24 10:17:51;;;;;;;12.82;9.45;;;19.50;33.50;;;;;;5037291;28;20470;-81
2022/03/24 10:20:17;;;;;;;12.05;9.65;;;19.60;32.70;;;;;;5038950;28;20029;-80
2022/03/24 10:23:04;;;;;;;10.65;8.80;;;19.40;32.30;;;;;;5025146;28;20042;-80
2022/03/24 10:26:05;;;;;;;10.68;8.07;;;19.30;32.50;;;;;;5034574;28;20029;-80
2022/03/24 10:28:40;;;;;;;7.47;6.53;;;19.50;32.60;;;;;;5036461;28;20100;-78
2022/03/24 10:31:06;;;;;;;13.10;8.40;;;19.90;32.40;;;;;;5038907;28;20033;-81
2022/03/24 10:33:47;;;;;;;16.02;9.52;;;20.10;32.00;;;;;;5041085;28;20059;-80
2022/03/24 10:36:23;;;;;;;10.63;8.37;;;20.20;31.60;;;;;;5041225;28;20471;-79
2022/03/24 10:38:54;;;;;;;13.75;9.73;;;20.20;31.90;;;;;;5038768;28;20105;-82
2022/03/24 10:41:28;;;;;;;12.70;9.13;;;20.40;31.70;;;;;;5042110;28;20128;-82
2022/03/24 10:44:09;;;;;;;15.98;9.88;;;20.50;31.50;;;;;;5042728;28;20022;-81
2022/03/24 10:46:37;;;;;;;9.93;8.07;;;20.30;31.40;;;;;;5037661;28;20036;-81
2022/03/24 10:49:29;;;;;;;13.63;9.30;;;20.40;31.90;;;;;;5039298;28;20021;-80
2022/03/24 10:51:55;;;;;;;10.60;8.20;;;20.40;31.20;;;;;;5039009;28;20025;-81
2022/03/24 10:54:41;;;;;;;18.02;9.50;;;20.40;31.10;;;;;;5034242;28;20030;-80
2022/03/24 10:57:15;;;;;;;18.40;8.32;;;20.40;30.60;;;;;;5031527;28;20364;-81
2022/03/24 10:59:45;;;;;;;10.00;8.55;;;20.20;30.70;;;;;;5037481;28;20025;-80
2022/03/24 11:02:12;;;;;;;12.68;8.60;;;20.00;31.30;;;;;;5035940;28;20029;-79
2022/03/24 11:04:37;;;;;;;10.38;7.40;;;19.90;31.00;;;;;;5022015;28;20049;-78
2022/03/24 11:07:04;;;;;;;10.18;7.72;;;19.90;31.00;;;;;;5017941;28;20022;-80
2022/03/24 11:09:34;;;;;;;9.65;8.13;;;20.10;30.70;;;;;;5020577;28;20034;-82
2022/03/24 11:12:29;;;;;;;11.40;8.00;;;20.00;30.30;;;;;;5020745;28;20402;-80
2022/03/24 11:15:02;;;;;;;10.75;7.25;;;20.20;30.10;;;;;;5020193;28;20121;-83
2022/03/24 11:17:39;;;;;;;11.70;7.50;;;20.30;29.70;;;;;;5019507;28;20428;-83
2022/03/24 11:20:19;;;;;;;8.73;7.15;;;20.20;29.80;;;;;;5030110;28;20040;-82
2022/03/24 11:22:58;;;;;;;8.52;7.35;;;20.20;29.90;;;;;;5031432;28;20113;-83
2022/03/24 11:25:25;;;;;;;7.13;6.35;;;20.30;29.80;;;;;;5041290;28;20026;-82
2022/03/24 11:27:56;;;;;;;10.45;8.57;;;20.50;29.70;;;;;;5055073;28;20017;-82
2022/03/24 11:30:23;;;;;;;10.30;8.50;;;20.70;29.50;;;;;;5053921;28;20036;-82
2022/03/24 11:32:52;;;;;;;10.63;7.90;;;20.70;29.40;;;;;;5052933;28;20025;-81
2022/03/24 11:35:22;;;;;;;12.13;8.32;;;20.40;29.40;;;;;;5053013;28;20009;-82
2022/03/24 11:37:49;;;;;;;9.15;7.68;;;20.40;29.60;;;;;;5053104;28;20037;-81
2022/03/24 11:40:29;;;;;;;9.43;6.95;;;20.50;29.80;;;;;;5053982;28;20032;-82
2022/03/24 11:43:07;;;;;;;10.63;7.47;;;21.30;29.60;;;;;;5055118;28;20095;-83
2022/03/24 11:45:38;;;;;;;9.27;6.85;;;21.90;28.30;;;;;;5054889;28;20025;-82
2022/03/24 11:48:29;;;;;;;11.25;7.53;;;21.70;28.40;;;;;;5052489;28;20093;-82
2022/03/24 11:50:55;;;;;;;9.25;7.63;;;22.00;28.40;;;;;;5052081;28;20117;-81
2022/03/24 11:53:27;;;;;;;9.45;7.95;;;22.80;27.30;;;;;;5046756;28;20129;-82
2022/03/24 11:55:59;;;;;;;7.10;6.40;;;23.40;27.10;;;;;;5054702;28;20022;-83
2022/03/24 11:58:26;;;;;;;7.22;6.53;;;24.20;28.10;;;;;;5036049;28;20065;-86
2022/03/24 12:00:52;;;;;;;8.77;7.20;;;24.70;26.40;;;;;;5034180;28;20014;-85
2022/03/24 12:03:45;;;;;;;8.35;7.03;;;24.30;25.80;;;;;;5031659;28;20045;-84
2022/03/24 12:06:13;;;;;;;7.43;6.07;;;23.90;26.10;;;;;;5032803;28;20018;-84
2022/03/24 12:09:03;;;;;;;9.38;7.63;;;23.60;26.30;;;;;;5048112;28;20030;-84
2022/03/24 12:11:32;;;;;;;8.45;6.75;;;23.00;26.30;;;;;;5049250;28;20093;-85
2022/03/24 12:14:05;;;;;;;7.68;6.82;;;22.40;26.90;;;;;;5054157;28;20085;-84
2022/03/24 12:16:35;;;;;;;8.43;7.53;;;21.90;27.80;;;;;;5054678;28;20094;-84
2022/03/24 12:19:00;;;;;;;10.48;9.18;;;21.90;27.30;;;;;;5054255;28;20025;-84
2022/03/24 12:21:30;;;;;;;9.77;8.40;;;21.80;27.10;;;;;;5049425;28;20045;-85
2022/03/24 12:24:09;;;;;;;9.73;7.57;;;21.50;27.70;;;;;;5043297;28;20060;-85
2022/03/24 12:26:39;;;;;;;9.88;7.72;;;21.30;27.80;;;;;;5035606;28;20025;-84
2022/03/24 12:29:11;;;;;;;12.07;8.70;;;21.40;27.50;;;;;;5022458;28;20117;-84
2022/03/24 12:31:59;;;;;;;8.95;7.43;;;21.20;27.50;;;;;;5022904;28;20045;-83
2022/03/24 12:34:44;;;;;;;7.43;6.72;;;21.20;27.80;;;;;;5022982;28;20125;-84
2022/03/24 12:37:32;;;;;;;9.20;8.10;;;21.40;27.70;;;;;;5021076;28;20030;-85
2022/03/24 12:40:10;;;;;;;11.30;8.40;;;21.50;27.50;;;;;;5018336;28;20026;-84
2022/03/24 12:42:53;;;;;;;10.73;8.30;;;21.30;27.80;;;;;;5027019;28;20093;-84
2022/03/24 12:45:25;;;;;;;9.18;7.55;;;21.30;27.70;;;;;;5025024;28;20026;-83
2022/03/24 12:47:55;;;;;;;9.82;7.13;;;21.30;27.80;;;;;;5026094;28;20025;-84
2022/03/24 12:50:21;;;;;;;8.25;7.20;;;21.40;27.70;;;;;;5025069;28;20036;-84
2022/03/24 12:52:54;;;;;;;9.38;8.38;;;21.40;27.80;;;;;;5026273;28;20057;-84
2022/03/24 12:55:26;;;;;;;10.32;8.18;;;21.30;27.80;;;;;;5031378;28;20022;-84
2022/03/24 12:57:56;;;;;;;;;;;21.30;27.80;;;;;;5039999;28;20033;-85